createdAt,value
2018-11-03T00:00:36.590Z,960.41
2018-11-03T00:01:36.584Z,960.45
2018-11-03T00:02:36.543Z,960.46
2018-11-03T00:03:36.538Z,960.47
2018-11-03T00:04:36.493Z,960.46
2018-11-03T00:05:36.495Z,960.47
2018-11-03T00:06:36.593Z,960.47
2018-11-03T00:07:36.474Z,960.51
2018-11-03T00:08:36.462Z,960.45
2018-11-03T00:09:36.452Z,960.46
2018-11-03T00:10:36.440Z,960.46
2018-11-03T00:11:36.447Z,960.42
2018-11-03T00:12:36.449Z,960.40
2018-11-03T00:13:36.402Z,960.43
2018-11-03T00:14:36.396Z,960.47
2018-11-03T00:15:36.406Z,960.43
2018-11-03T00:16:36.402Z,960.43
2018-11-03T00:17:36.357Z,960.42
2018-11-03T00:18:36.346Z,960.46
2018-11-03T00:19:36.379Z,960.43
2018-11-03T00:20:36.347Z,960.45
2018-11-03T00:21:37.135Z,960.47
2018-11-03T00:22:36.302Z,960.40
2018-11-03T00:23:36.319Z,960.46
2018-11-03T00:24:36.279Z,960.45
2018-11-03T00:25:36.293Z,960.43
2018-11-03T00:26:36.255Z,960.43
2018-11-03T00:27:36.301Z,960.43
2018-11-03T00:28:36.263Z,960.44
2018-11-03T00:29:36.234Z,960.48
2018-11-03T00:30:36.280Z,960.50
2018-11-03T00:31:36.198Z,960.50
2018-11-03T00:32:36.216Z,960.49
2018-11-03T00:33:36.216Z,960.44
2018-11-03T00:34:36.160Z,960.47
2018-11-03T00:35:36.221Z,960.45
2018-11-03T00:36:36.136Z,960.44
2018-11-03T00:37:36.160Z,960.43
2018-11-03T00:38:36.123Z,960.45
2018-11-03T00:39:36.110Z,960.47
2018-11-03T00:40:36.151Z,960.43
2018-11-03T00:41:36.124Z,960.44
2018-11-03T00:42:36.134Z,960.44
2018-11-03T00:43:36.107Z,960.44
2018-11-03T00:44:36.096Z,960.43
2018-11-03T00:45:36.075Z,960.49
2018-11-03T00:46:36.031Z,960.43
2018-11-03T00:47:36.049Z,960.44
2018-11-03T00:48:36.035Z,960.42
2018-11-03T00:49:36.016Z,960.39
2018-11-03T00:50:35.976Z,960.39
2018-11-03T00:51:35.994Z,960.42
2018-11-03T00:52:35.975Z,960.39
2018-11-03T00:53:35.984Z,960.41
2018-11-03T00:54:35.944Z,960.42
2018-11-03T00:55:35.925Z,960.44
2018-11-03T00:56:35.908Z,960.48
2018-11-03T00:57:35.969Z,960.45
2018-11-03T00:58:35.896Z,960.42
2018-11-03T00:59:35.885Z,960.47
2018-11-03T01:00:35.880Z,960.43
2018-11-03T01:01:35.858Z,960.40
2018-11-03T01:02:35.889Z,960.39
2018-11-03T01:03:35.909Z,960.36
2018-11-03T01:04:35.822Z,960.37
2018-11-03T01:05:35.825Z,960.33
2018-11-03T01:06:35.816Z,960.29
2018-11-03T01:07:35.821Z,960.33
2018-11-03T01:08:35.794Z,960.32
2018-11-03T01:09:35.814Z,960.34
2018-11-03T01:10:35.823Z,960.35
2018-11-03T01:11:35.750Z,960.37
2018-11-03T01:12:35.738Z,960.36
2018-11-03T01:13:35.771Z,960.42
2018-11-03T01:14:35.733Z,960.43
2018-11-03T01:15:35.721Z,960.48
2018-11-03T01:16:35.699Z,960.47
2018-11-03T01:17:35.683Z,960.45
2018-11-03T01:18:35.690Z,960.42
2018-11-03T01:19:35.657Z,960.37
2018-11-03T01:20:35.659Z,960.38
2018-11-03T01:21:35.645Z,960.35
2018-11-03T01:22:35.622Z,960.31
2018-11-03T01:23:35.701Z,960.34
2018-11-03T01:24:35.672Z,960.34
2018-11-03T01:25:35.599Z,960.32
2018-11-03T01:26:35.590Z,960.31
2018-11-03T01:27:35.584Z,960.32
2018-11-03T01:28:35.607Z,960.34
2018-11-03T01:29:35.565Z,960.34
2018-11-03T01:30:35.524Z,960.32
2018-11-03T01:31:35.573Z,960.29
2018-11-03T01:32:35.619Z,960.21
2018-11-03T01:33:35.506Z,960.19
2018-11-03T01:34:35.481Z,960.20
2018-11-03T01:35:35.481Z,960.19
2018-11-03T01:36:35.491Z,960.16
2018-11-03T01:37:35.499Z,960.26
2018-11-03T01:38:35.434Z,960.22
2018-11-03T01:39:35.429Z,960.22
2018-11-03T01:40:35.434Z,960.21
2018-11-03T01:41:35.408Z,960.29
2018-11-03T01:42:35.433Z,960.26
2018-11-03T01:43:35.384Z,960.23
2018-11-03T01:44:35.380Z,960.13
2018-11-03T01:45:35.380Z,960.08
2018-11-03T01:46:35.352Z,960.02
2018-11-03T01:47:35.422Z,960.01
2018-11-03T01:48:35.328Z,960.00
2018-11-03T01:49:35.315Z,960.04
2018-11-03T01:50:35.303Z,960.04
2018-11-03T01:51:35.305Z,960.09
2018-11-03T01:52:35.300Z,960.13
2018-11-03T01:53:35.257Z,960.13
2018-11-03T01:54:35.252Z,960.11
2018-11-03T01:55:35.266Z,960.10
2018-11-03T01:56:35.243Z,960.09
2018-11-03T01:57:35.232Z,960.04
2018-11-03T01:58:35.211Z,960.08
2018-11-03T01:59:35.197Z,960.04
2018-11-03T02:00:35.211Z,960.02
2018-11-03T02:01:35.179Z,960.03
2018-11-03T02:02:35.218Z,960.02
2018-11-03T02:03:35.149Z,960.01
2018-11-03T02:04:35.156Z,960.04
2018-11-03T02:05:35.177Z,960.03
2018-11-03T02:06:35.121Z,960.02
2018-11-03T02:07:35.138Z,960.03
2018-11-03T02:08:35.092Z,960.03
2018-11-03T02:09:35.088Z,960.00
2018-11-03T02:10:35.071Z,960.07
2018-11-03T02:11:35.091Z,960.06
2018-11-03T02:12:35.080Z,960.10
2018-11-03T02:13:35.140Z,960.09
2018-11-03T02:14:35.022Z,960.11
2018-11-03T02:15:35.016Z,960.06
2018-11-03T02:16:35.000Z,960.08
2018-11-03T02:17:35.043Z,960.07
2018-11-03T02:18:35.018Z,960.07
2018-11-03T02:19:34.970Z,960.03
2018-11-03T02:20:34.998Z,960.03
2018-11-03T02:21:34.953Z,960.02
2018-11-03T02:22:34.973Z,960.01
2018-11-03T02:23:34.927Z,960.02
2018-11-03T02:24:34.936Z,960.00
2018-11-03T02:25:34.960Z,959.99
2018-11-03T02:26:34.888Z,959.90
2018-11-03T02:27:34.905Z,959.93
2018-11-03T02:28:34.874Z,959.96
2018-11-03T02:29:34.856Z,959.92
2018-11-03T02:30:34.871Z,959.97
2018-11-03T02:31:34.878Z,959.98
2018-11-03T02:32:34.822Z,960.01
2018-11-03T02:33:34.837Z,960.00
2018-11-03T02:34:34.840Z,959.97
2018-11-03T02:35:34.798Z,959.97
2018-11-03T02:36:34.805Z,960.01
2018-11-03T02:37:34.773Z,960.00
2018-11-03T02:38:34.788Z,960.05
2018-11-03T02:39:34.742Z,960.06
2018-11-03T02:40:34.724Z,960.07
2018-11-03T02:41:34.754Z,960.08
2018-11-03T02:42:34.736Z,960.10
2018-11-03T02:43:34.690Z,960.14
2018-11-03T02:44:34.681Z,960.13
2018-11-03T02:45:34.702Z,960.16
2018-11-03T02:46:34.652Z,960.18
2018-11-03T02:47:34.684Z,960.17
2018-11-03T02:48:34.640Z,960.15
2018-11-03T02:49:34.631Z,960.21
2018-11-03T02:50:34.612Z,960.24
2018-11-03T02:51:34.634Z,960.24
2018-11-03T02:52:34.604Z,960.27
2018-11-03T02:53:34.605Z,960.28
2018-11-03T02:54:34.570Z,960.24
2018-11-03T02:55:34.553Z,960.26
2018-11-03T02:56:34.544Z,960.27
2018-11-03T02:57:34.613Z,960.27
2018-11-03T02:58:34.534Z,960.25
2018-11-03T02:59:34.545Z,960.23
2018-11-03T03:00:34.506Z,960.27
2018-11-03T03:01:34.482Z,960.29
2018-11-03T03:02:34.481Z,960.26
2018-11-03T03:03:34.495Z,960.30
2018-11-03T03:04:34.488Z,960.35
2018-11-03T03:05:34.480Z,960.38
2018-11-03T03:06:34.425Z,960.45
2018-11-03T03:07:34.428Z,960.45
2018-11-03T03:08:34.402Z,960.49
2018-11-03T03:09:34.399Z,960.50
2018-11-03T03:10:34.422Z,960.43
2018-11-03T03:11:34.380Z,960.45
2018-11-03T03:12:34.387Z,960.46
2018-11-03T03:13:34.346Z,960.44
2018-11-03T03:14:34.337Z,960.47
2018-11-03T03:15:34.356Z,960.50
2018-11-03T03:16:34.316Z,960.49
2018-11-03T03:17:34.357Z,960.50
2018-11-03T03:18:34.292Z,960.47
2018-11-03T03:19:34.281Z,960.38
2018-11-03T03:20:34.263Z,960.39
2018-11-03T03:21:34.264Z,960.34
2018-11-03T03:22:34.270Z,960.28
2018-11-03T03:23:34.236Z,960.39
2018-11-03T03:24:34.271Z,960.33
2018-11-03T03:25:34.270Z,960.40
2018-11-03T03:26:34.202Z,960.40
2018-11-03T03:27:34.203Z,960.46
2018-11-03T03:28:34.176Z,960.46
2018-11-03T03:29:34.232Z,960.53
2018-11-03T03:30:34.175Z,960.52
2018-11-03T03:31:34.139Z,960.53
2018-11-03T03:32:34.149Z,960.51
2018-11-03T03:33:34.133Z,960.56
2018-11-03T03:34:34.144Z,960.53
2018-11-03T03:35:34.108Z,960.59
2018-11-03T03:36:34.080Z,960.62
2018-11-03T03:37:34.100Z,960.64
2018-11-03T03:38:34.065Z,960.63
2018-11-03T03:39:34.077Z,960.65
2018-11-03T03:40:34.077Z,960.69
2018-11-03T03:41:34.029Z,960.68
2018-11-03T03:42:34.029Z,960.67
2018-11-03T03:43:34.057Z,960.66
2018-11-03T03:44:34.020Z,960.70
2018-11-03T03:45:33.986Z,960.68
2018-11-03T03:46:33.969Z,960.69
2018-11-03T03:47:33.962Z,960.73
2018-11-03T03:48:33.979Z,960.76
2018-11-03T03:49:33.993Z,960.75
2018-11-03T03:50:33.946Z,960.72
2018-11-03T03:51:33.917Z,960.74
2018-11-03T03:52:33.902Z,960.72
2018-11-03T03:53:33.909Z,960.75
2018-11-03T03:54:33.885Z,960.76
2018-11-03T03:55:33.926Z,960.81
2018-11-03T03:56:33.860Z,960.81
2018-11-03T03:57:33.896Z,960.87
2018-11-03T03:58:33.837Z,960.86
2018-11-03T03:59:33.838Z,960.90
2018-11-03T04:00:33.825Z,960.92
2018-11-03T04:01:33.798Z,960.89
2018-11-03T04:02:33.826Z,960.87
2018-11-03T04:03:33.784Z,960.89
2018-11-03T04:04:33.769Z,960.89
2018-11-03T04:05:33.805Z,960.89
2018-11-03T04:06:33.797Z,960.86
2018-11-03T04:07:33.739Z,960.88
2018-11-03T04:08:33.733Z,960.90
2018-11-03T04:09:33.741Z,960.87
2018-11-03T04:10:33.701Z,960.86
2018-11-03T04:11:33.704Z,960.82
2018-11-03T04:12:33.692Z,960.81
2018-11-03T04:13:33.696Z,960.79
2018-11-03T04:14:33.682Z,960.78
2018-11-03T04:15:33.675Z,960.80
2018-11-03T04:16:33.640Z,960.80
2018-11-03T04:17:33.648Z,960.79
2018-11-03T04:18:33.643Z,960.79
2018-11-03T04:19:33.599Z,960.78
2018-11-03T04:20:33.592Z,960.80
2018-11-03T04:21:33.635Z,960.80
2018-11-03T04:22:33.645Z,960.82
2018-11-03T04:23:33.584Z,960.84
2018-11-03T04:24:33.536Z,960.84
2018-11-03T04:25:33.529Z,960.84
2018-11-03T04:26:33.519Z,960.83
2018-11-03T04:27:33.503Z,960.85
2018-11-03T04:28:33.559Z,960.87
2018-11-03T04:29:33.507Z,960.88
2018-11-03T04:30:33.480Z,960.84
2018-11-03T04:31:33.465Z,960.93
2018-11-03T04:32:33.454Z,960.93
2018-11-03T04:33:33.458Z,960.96
2018-11-03T04:34:33.439Z,960.97
2018-11-03T04:35:33.414Z,961.01
2018-11-03T04:36:33.409Z,960.99
2018-11-03T04:37:33.413Z,961.00
2018-11-03T04:38:33.404Z,961.01
2018-11-03T04:39:33.365Z,961.06
2018-11-03T04:40:33.370Z,961.00
2018-11-03T04:41:33.343Z,961.03
2018-11-03T04:42:33.337Z,961.01
2018-11-03T04:43:33.347Z,961.00
2018-11-03T04:44:33.311Z,960.99
2018-11-03T04:45:33.323Z,960.98
2018-11-03T04:46:33.305Z,961.01
2018-11-03T04:47:33.282Z,961.00
2018-11-03T04:48:33.307Z,961.02
2018-11-03T04:49:33.260Z,961.06
2018-11-03T04:50:33.240Z,961.11
2018-11-03T04:51:33.237Z,961.11
2018-11-03T04:52:33.220Z,961.16
2018-11-03T04:53:33.263Z,961.18
2018-11-03T04:54:33.203Z,961.16
2018-11-03T04:55:33.219Z,961.16
2018-11-03T04:56:33.175Z,961.21
2018-11-03T04:57:33.189Z,961.20
2018-11-03T04:58:33.183Z,961.28
2018-11-03T04:59:33.160Z,961.27
2018-11-03T05:00:33.153Z,961.28
2018-11-03T05:01:33.141Z,961.29
2018-11-03T05:02:33.114Z,961.28
2018-11-03T05:03:33.101Z,961.31
2018-11-03T05:04:33.082Z,961.32
2018-11-03T05:05:33.092Z,961.30
2018-11-03T05:06:33.084Z,961.29
2018-11-03T05:07:33.054Z,961.28
2018-11-03T05:08:33.034Z,961.33
2018-11-03T05:09:33.054Z,961.31
2018-11-03T05:10:33.039Z,961.30
2018-11-03T05:11:33.076Z,961.29
2018-11-03T05:12:33.035Z,961.34
2018-11-03T05:13:32.989Z,961.29
2018-11-03T05:14:33.005Z,961.32
2018-11-03T05:15:32.959Z,961.37
2018-11-03T05:16:33.588Z,961.36
2018-11-03T05:17:32.966Z,961.37
2018-11-03T05:18:32.920Z,961.37
2018-11-03T05:19:32.919Z,961.42
2018-11-03T05:20:32.908Z,961.42
2018-11-03T05:21:32.923Z,961.44
2018-11-03T05:22:32.933Z,961.46
2018-11-03T05:23:32.899Z,961.50
2018-11-03T05:24:32.882Z,961.55
2018-11-03T05:25:32.843Z,961.58
2018-11-03T05:26:32.836Z,961.60
2018-11-03T05:27:32.817Z,961.61
2018-11-03T05:28:32.866Z,961.61
2018-11-03T05:29:32.809Z,961.60
2018-11-03T05:30:32.804Z,961.65
2018-11-03T05:31:32.774Z,961.63
2018-11-03T05:32:32.790Z,961.63
2018-11-03T05:33:32.763Z,961.60
2018-11-03T05:34:32.798Z,961.58
2018-11-03T05:35:32.741Z,961.59
2018-11-03T05:36:32.731Z,961.57
2018-11-03T05:37:32.707Z,961.54
2018-11-03T05:38:32.759Z,961.53
2018-11-03T05:39:32.742Z,961.56
2018-11-03T05:40:32.695Z,961.59
2018-11-03T05:41:32.685Z,961.60
2018-11-03T05:42:32.683Z,961.59
2018-11-03T05:43:32.646Z,961.59
2018-11-03T05:44:32.655Z,961.55
2018-11-03T05:45:32.613Z,961.57
2018-11-03T05:46:32.682Z,961.55
2018-11-03T05:47:32.594Z,961.50
2018-11-03T05:48:32.650Z,961.52
2018-11-03T05:49:32.579Z,961.48
2018-11-03T05:50:32.567Z,961.48
2018-11-03T05:51:32.572Z,961.48
2018-11-03T05:52:32.577Z,961.52
2018-11-03T05:53:32.546Z,961.50
2018-11-03T05:54:32.522Z,961.50
2018-11-03T05:55:32.506Z,961.50
2018-11-03T05:56:32.509Z,961.50
2018-11-03T05:57:32.541Z,961.49
2018-11-03T05:58:32.492Z,961.47
2018-11-03T05:59:32.461Z,961.50
2018-11-03T06:00:32.483Z,961.46
2018-11-03T06:01:32.436Z,961.47
2018-11-03T06:02:32.444Z,961.46
2018-11-03T06:03:32.413Z,961.48
2018-11-03T06:04:32.462Z,961.45
2018-11-03T06:05:32.390Z,961.42
2018-11-03T06:06:32.385Z,961.42
2018-11-03T06:07:32.372Z,961.43
2018-11-03T06:08:32.394Z,961.41
2018-11-03T06:09:32.370Z,961.43
2018-11-03T06:10:32.344Z,961.42
2018-11-03T06:11:32.321Z,961.41
2018-11-03T06:12:33.166Z,961.39
2018-11-03T06:13:32.315Z,961.40
2018-11-03T06:14:32.333Z,961.33
2018-11-03T06:15:32.379Z,961.38
2018-11-03T06:16:32.256Z,961.39
2018-11-03T06:17:32.258Z,961.37
2018-11-03T06:18:32.240Z,961.34
2018-11-03T06:19:32.266Z,961.38
2018-11-03T06:20:32.255Z,961.36
2018-11-03T06:21:32.233Z,961.38
2018-11-03T06:22:32.309Z,961.40
2018-11-03T06:23:32.213Z,961.33
2018-11-03T06:24:32.235Z,961.33
2018-11-03T06:25:32.163Z,961.35
2018-11-03T06:26:32.184Z,961.36
2018-11-03T06:27:32.200Z,961.31
2018-11-03T06:28:32.171Z,961.31
2018-11-03T06:29:32.135Z,961.32
2018-11-03T06:30:32.167Z,961.30
2018-11-03T06:31:32.110Z,961.29
2018-11-03T06:32:32.083Z,961.29
2018-11-03T06:33:32.108Z,961.24
2018-11-03T06:34:32.062Z,961.26
2018-11-03T06:35:32.053Z,961.22
2018-11-03T06:36:32.059Z,961.20
2018-11-03T06:37:32.032Z,961.22
2018-11-03T06:38:32.057Z,961.23
2018-11-03T06:39:32.000Z,961.24
2018-11-03T06:40:31.991Z,961.22
2018-11-03T06:41:32.064Z,961.25
2018-11-03T06:42:31.982Z,961.23
2018-11-03T06:43:32.008Z,961.21
2018-11-03T06:44:31.962Z,961.20
2018-11-03T06:45:31.940Z,961.28
2018-11-03T06:46:31.944Z,961.27
2018-11-03T06:47:31.988Z,961.26
2018-11-03T06:48:31.944Z,961.25
2018-11-03T06:49:31.922Z,961.25
2018-11-03T06:50:31.899Z,961.26
2018-11-03T06:51:31.873Z,961.24
2018-11-03T06:52:31.864Z,961.28
2018-11-03T06:53:31.868Z,961.31
2018-11-03T06:54:31.837Z,961.34
2018-11-03T06:55:31.823Z,961.31
2018-11-03T06:56:31.845Z,961.38
2018-11-03T06:57:31.798Z,961.38
2018-11-03T06:58:31.829Z,961.36
2018-11-03T06:59:31.890Z,961.38
2018-11-03T07:00:31.777Z,961.39
2018-11-03T07:01:31.758Z,961.43
2018-11-03T07:02:31.747Z,961.45
2018-11-03T07:03:31.765Z,961.47
2018-11-03T07:04:31.733Z,961.49
2018-11-03T07:05:31.725Z,961.43
2018-11-03T07:06:31.736Z,961.48
2018-11-03T07:07:31.721Z,961.46
2018-11-03T07:08:31.669Z,961.47
2018-11-03T07:09:31.669Z,961.48
2018-11-03T07:10:31.656Z,961.50
2018-11-03T07:11:31.744Z,961.52
2018-11-03T07:12:31.823Z,961.53
2018-11-03T07:13:31.637Z,961.54
2018-11-03T07:14:31.645Z,961.55
2018-11-03T07:15:31.596Z,961.52
2018-11-03T07:16:31.638Z,961.50
2018-11-03T07:17:31.560Z,961.51
2018-11-03T07:18:31.610Z,961.52
2018-11-03T07:19:31.607Z,961.54
2018-11-03T07:20:31.568Z,961.58
2018-11-03T07:21:31.569Z,961.64
2018-11-03T07:22:31.507Z,961.65
2018-11-03T07:23:31.559Z,961.69
2018-11-03T07:24:31.523Z,961.73
2018-11-03T07:25:31.483Z,961.69
2018-11-03T07:26:31.498Z,961.73
2018-11-03T07:27:31.463Z,961.75
2018-11-03T07:28:31.484Z,961.78
2018-11-03T07:29:31.489Z,961.76
2018-11-03T07:30:31.424Z,961.79
2018-11-03T07:31:31.412Z,961.87
2018-11-03T07:32:31.455Z,961.88
2018-11-03T07:33:31.469Z,961.87
2018-11-03T07:34:31.392Z,961.88
2018-11-03T07:35:31.357Z,961.89
2018-11-03T07:36:31.390Z,961.90
2018-11-03T07:37:31.335Z,961.88
2018-11-03T07:38:31.329Z,961.86
2018-11-03T07:39:31.371Z,961.87
2018-11-03T07:40:31.330Z,961.89
2018-11-03T07:41:31.383Z,961.91
2018-11-03T07:42:31.353Z,961.92
2018-11-03T07:43:31.310Z,961.92
2018-11-03T07:44:31.261Z,961.87
2018-11-03T07:45:31.246Z,961.94
2018-11-03T07:46:31.319Z,961.87
2018-11-03T07:47:31.229Z,961.96
2018-11-03T07:48:31.290Z,961.89
2018-11-03T07:49:31.388Z,961.88
2018-11-03T07:50:31.192Z,961.88
2018-11-03T07:51:31.264Z,961.90
2018-11-03T07:52:31.174Z,961.92
2018-11-03T07:53:31.182Z,961.89
2018-11-03T07:54:31.209Z,961.89
2018-11-03T07:55:31.146Z,961.91
2018-11-03T07:56:31.169Z,961.89
2018-11-03T07:57:31.124Z,961.92
2018-11-03T07:58:31.129Z,961.86
2018-11-03T07:59:31.108Z,961.92
2018-11-03T08:00:31.170Z,961.86
2018-11-03T08:01:31.112Z,961.86
2018-11-03T08:02:31.054Z,961.81
2018-11-03T08:03:31.060Z,961.85
2018-11-03T08:04:31.041Z,961.86
2018-11-03T08:05:31.058Z,961.87
2018-11-03T08:06:31.049Z,961.88
2018-11-03T08:07:31.034Z,961.92
2018-11-03T08:08:30.983Z,961.93
2018-11-03T08:09:30.987Z,961.98
2018-11-03T08:10:30.963Z,961.95
2018-11-03T08:11:30.961Z,961.93
2018-11-03T08:12:30.986Z,961.94
2018-11-03T08:13:30.925Z,961.92
2018-11-03T08:14:30.965Z,961.91
2018-11-03T08:15:30.912Z,961.92
2018-11-03T08:16:30.897Z,961.88
2018-11-03T08:17:30.916Z,961.91
2018-11-03T08:18:30.885Z,961.93
2018-11-03T08:19:30.881Z,961.95
2018-11-03T08:20:30.870Z,961.97
2018-11-03T08:21:30.828Z,961.96
2018-11-03T08:22:30.873Z,961.92
2018-11-03T08:23:30.809Z,961.93
2018-11-03T08:24:30.856Z,962.00
2018-11-03T08:25:30.795Z,961.99
2018-11-03T08:26:30.780Z,961.99
2018-11-03T08:27:30.825Z,961.97
2018-11-03T08:28:30.765Z,961.95
2018-11-03T08:29:30.756Z,961.97
2018-11-03T08:30:30.730Z,961.95
2018-11-03T08:31:30.797Z,961.98
2018-11-03T08:32:30.756Z,961.96
2018-11-03T08:33:30.710Z,961.98
2018-11-03T08:34:30.679Z,961.97
2018-11-03T08:35:30.682Z,961.97
2018-11-03T08:36:30.685Z,961.93
2018-11-03T08:37:30.667Z,961.99
2018-11-03T08:38:30.641Z,961.97
2018-11-03T08:39:30.666Z,961.96
2018-11-03T08:40:30.617Z,961.98
2018-11-03T08:41:30.662Z,961.95
2018-11-03T08:42:30.593Z,961.92
2018-11-03T08:43:45.200Z,961.88
2018-11-03T08:44:30.615Z,961.90
2018-11-03T08:45:30.567Z,961.90
2018-11-03T08:46:30.568Z,961.88
2018-11-03T08:47:30.537Z,961.90
2018-11-03T08:48:30.619Z,961.88
2018-11-03T08:49:30.523Z,961.90
2018-11-03T08:50:30.503Z,961.91
2018-11-03T08:51:30.496Z,961.86
2018-11-03T08:52:30.495Z,961.84
2018-11-03T08:53:30.505Z,961.89
2018-11-03T08:54:30.464Z,961.87
2018-11-03T08:55:30.483Z,961.84
2018-11-03T08:56:33.141Z,961.82
2018-11-03T08:57:30.477Z,961.87
2018-11-03T08:58:30.436Z,961.80
2018-11-03T08:59:30.495Z,961.84
2018-11-03T09:00:30.414Z,961.83
2018-11-03T09:01:30.381Z,961.84
2018-11-03T09:02:30.407Z,961.83
2018-11-03T09:03:30.368Z,961.84
2018-11-03T09:04:30.348Z,961.81
2018-11-03T09:05:30.340Z,961.83
2018-11-03T09:06:30.369Z,961.77
2018-11-03T09:07:30.346Z,961.81
2018-11-03T09:08:30.302Z,961.82
2018-11-03T09:09:30.319Z,961.82
2018-11-03T09:10:30.281Z,961.84
2018-11-03T09:11:30.272Z,961.87
2018-11-03T09:12:30.368Z,961.86
2018-11-03T09:13:30.241Z,961.86
2018-11-03T09:14:30.300Z,961.87
2018-11-03T09:15:30.224Z,961.86
2018-11-03T09:16:30.212Z,961.85
2018-11-03T09:17:30.227Z,961.81
2018-11-03T09:18:30.186Z,961.85
2018-11-03T09:19:30.217Z,961.86
2018-11-03T09:20:30.180Z,961.86
2018-11-03T09:21:30.162Z,961.85
2018-11-03T09:22:30.245Z,961.86
2018-11-03T09:23:30.134Z,961.85
2018-11-03T09:24:30.141Z,961.82
2018-11-03T09:25:30.141Z,961.84
2018-11-03T09:26:30.096Z,961.83
2018-11-03T09:27:30.085Z,961.83
2018-11-03T09:28:30.077Z,961.83
2018-11-03T09:29:30.092Z,961.85
2018-11-03T09:30:30.054Z,961.86
2018-11-03T09:31:30.048Z,961.80
2018-11-03T09:32:30.057Z,961.86
2018-11-03T09:33:30.018Z,961.84
2018-11-03T09:34:30.063Z,961.82
2018-11-03T09:35:29.990Z,961.80
2018-11-03T09:36:30.021Z,961.84
2018-11-03T09:37:29.996Z,961.87
2018-11-03T09:38:30.087Z,961.86
2018-11-03T09:39:29.941Z,961.86
2018-11-03T09:40:29.928Z,961.86
2018-11-03T09:41:29.915Z,961.83
2018-11-03T09:42:29.970Z,961.84
2018-11-03T09:43:30.043Z,961.83
2018-11-03T09:44:29.886Z,961.82
2018-11-03T09:45:29.873Z,961.78
2018-11-03T09:46:29.872Z,961.83
2018-11-03T09:47:29.874Z,961.77
2018-11-03T09:48:29.844Z,961.76
2018-11-03T09:49:29.824Z,961.80
2018-11-03T09:50:33.261Z,961.77
2018-11-03T09:51:29.834Z,961.77
2018-11-03T09:52:29.806Z,961.71
2018-11-03T09:53:29.783Z,961.72
2018-11-03T09:54:30.594Z,961.75
2018-11-03T09:55:29.809Z,961.70
2018-11-03T09:56:29.773Z,961.74
2018-11-03T09:57:29.790Z,961.70
2018-11-03T09:58:29.737Z,961.71
2018-11-03T09:59:29.738Z,961.70
2018-11-03T10:00:29.755Z,961.71
2018-11-03T10:01:29.690Z,961.70
2018-11-03T10:02:29.675Z,961.70
2018-11-03T10:03:29.669Z,961.73
2018-11-03T10:04:29.673Z,961.68
2018-11-03T10:05:29.737Z,961.72
2018-11-03T10:06:29.652Z,961.77
2018-11-03T10:07:29.652Z,961.78
2018-11-03T10:08:29.627Z,961.78
2018-11-03T10:09:29.642Z,961.78
2018-11-03T10:10:29.601Z,961.75
2018-11-03T10:11:29.584Z,961.73
2018-11-03T10:12:29.593Z,961.68
2018-11-03T10:13:29.562Z,961.70
2018-11-03T10:14:29.574Z,961.65
2018-11-03T10:15:29.587Z,961.63
2018-11-03T10:16:30.103Z,961.58
2018-11-03T10:17:29.515Z,961.54
2018-11-03T10:18:29.519Z,961.54
2018-11-03T10:19:29.520Z,961.61
2018-11-03T10:20:29.515Z,961.55
2018-11-03T10:21:29.470Z,961.53
2018-11-03T10:22:29.554Z,961.49
2018-11-03T10:23:29.452Z,961.46
2018-11-03T10:24:29.491Z,961.49
2018-11-03T10:25:29.427Z,961.48
2018-11-03T10:26:29.436Z,961.51
2018-11-03T10:27:29.409Z,961.51
2018-11-03T10:28:29.427Z,961.55
2018-11-03T10:29:30.095Z,961.51
2018-11-03T10:30:29.399Z,961.57
2018-11-03T10:31:29.359Z,961.53
2018-11-03T10:32:29.377Z,961.53
2018-11-03T10:33:29.349Z,961.56
2018-11-03T10:34:29.327Z,961.54
2018-11-03T10:35:29.306Z,961.51
2018-11-03T10:36:29.372Z,961.50
2018-11-03T10:37:29.329Z,961.49
2018-11-03T10:38:29.366Z,961.48
2018-11-03T10:39:29.304Z,961.42
2018-11-03T10:40:30.103Z,961.46
2018-11-03T10:41:29.241Z,961.44
2018-11-03T10:42:29.303Z,961.45
2018-11-03T10:43:29.222Z,961.47
2018-11-03T10:44:29.213Z,961.46
2018-11-03T10:45:29.208Z,961.51
2018-11-03T10:46:29.339Z,961.49
2018-11-03T10:47:29.206Z,961.48
2018-11-03T10:48:29.198Z,961.52
2018-11-03T10:49:29.203Z,961.50
2018-11-03T10:50:29.142Z,961.51
2018-11-03T10:51:29.135Z,961.53
2018-11-03T10:52:29.125Z,961.55
2018-11-03T10:53:29.143Z,961.53
2018-11-03T10:54:29.098Z,961.55
2018-11-03T10:55:29.091Z,961.54
2018-11-03T10:56:29.070Z,961.51
2018-11-03T10:57:29.064Z,961.53
2018-11-03T10:58:29.115Z,961.54
2018-11-03T10:59:29.083Z,961.50
2018-11-03T11:00:29.039Z,961.54
2018-11-03T11:01:29.032Z,961.56
2018-11-03T11:02:29.011Z,961.52
2018-11-03T11:03:29.039Z,961.50
2018-11-03T11:04:29.021Z,961.49
2018-11-03T11:05:29.011Z,961.49
2018-11-03T11:06:28.965Z,961.46
2018-11-03T11:07:28.949Z,961.48
2018-11-03T11:08:28.934Z,961.46
2018-11-03T11:09:28.953Z,961.48
2018-11-03T11:10:28.929Z,961.47
2018-11-03T11:11:28.914Z,961.43
2018-11-03T11:12:28.912Z,961.42
2018-11-03T11:13:28.883Z,961.47
2018-11-03T11:14:29.003Z,961.48
2018-11-03T11:15:28.862Z,961.50
2018-11-03T11:16:28.948Z,961.47
2018-11-03T11:17:28.852Z,961.49
2018-11-03T11:18:31.649Z,961.49
2018-11-03T11:19:28.865Z,961.50
2018-11-03T11:20:28.843Z,961.51
2018-11-03T11:21:28.833Z,961.49
2018-11-03T11:22:28.786Z,961.45
2018-11-03T11:23:28.817Z,961.39
2018-11-03T11:24:28.814Z,961.41
2018-11-03T11:25:28.938Z,961.41
2018-11-03T11:26:28.734Z,961.40
2018-11-03T11:27:28.744Z,961.37
2018-11-03T11:28:28.742Z,961.39
2018-11-03T11:29:28.736Z,961.30
2018-11-03T11:30:28.692Z,961.31
2018-11-03T11:31:28.823Z,961.31
2018-11-03T11:32:28.723Z,961.33
2018-11-03T11:33:28.698Z,961.25
2018-11-03T11:34:28.665Z,961.26
2018-11-03T11:35:28.680Z,961.24
2018-11-03T11:36:28.633Z,961.22
2018-11-03T11:37:28.728Z,961.19
2018-11-03T11:38:28.663Z,961.17
2018-11-03T11:39:28.582Z,961.09
2018-11-03T11:40:28.647Z,961.09
2018-11-03T11:41:28.583Z,961.14
2018-11-03T11:42:28.595Z,961.06
2018-11-03T11:43:28.552Z,961.12
2018-11-03T11:44:28.538Z,961.15
2018-11-03T11:45:28.565Z,961.16
2018-11-03T11:46:28.524Z,961.14
2018-11-03T11:47:28.524Z,961.16
2018-11-03T11:48:28.642Z,961.13
2018-11-03T11:49:28.486Z,961.07
2018-11-03T11:50:28.517Z,961.13
2018-11-03T11:51:28.476Z,961.16
2018-11-03T11:52:28.455Z,961.16
2018-11-03T11:53:28.470Z,961.16
2018-11-03T11:54:28.457Z,961.16
2018-11-03T11:55:28.440Z,961.19
2018-11-03T11:56:28.469Z,961.16
2018-11-03T11:57:28.397Z,961.15
2018-11-03T11:58:28.406Z,961.14
2018-11-03T11:59:28.366Z,961.13
2018-11-03T12:00:28.436Z,961.12
2018-11-03T12:01:28.346Z,961.07
2018-11-03T12:02:28.450Z,961.15
2018-11-03T12:03:28.334Z,961.09
2018-11-03T12:04:28.361Z,961.09
2018-11-03T12:05:28.331Z,961.07
2018-11-03T12:06:28.309Z,961.03
2018-11-03T12:07:28.279Z,961.02
2018-11-03T12:08:28.267Z,961.03
2018-11-03T12:09:28.273Z,961.01
2018-11-03T12:10:28.315Z,961.04
2018-11-03T12:11:28.231Z,961.02
2018-11-03T12:12:28.241Z,960.98
2018-11-03T12:13:28.214Z,960.95
2018-11-03T12:14:28.233Z,961.00
2018-11-03T12:15:28.210Z,961.00
2018-11-03T12:16:28.181Z,961.00
2018-11-03T12:17:28.181Z,961.03
2018-11-03T12:18:28.152Z,960.99
2018-11-03T12:19:28.148Z,960.95
2018-11-03T12:20:28.188Z,960.94
2018-11-03T12:21:28.140Z,960.99
2018-11-03T12:22:28.112Z,960.99
2018-11-03T12:23:28.109Z,960.99
2018-11-03T12:24:28.097Z,960.98
2018-11-03T12:25:28.161Z,960.97
2018-11-03T12:26:28.103Z,961.00
2018-11-03T12:27:28.057Z,960.98
2018-11-03T12:28:28.071Z,960.97